createdAt,value
2022-08-21T00:01:40.817Z,99925.94
2022-08-21T00:04:09.244Z,99933.66
2022-08-21T00:06:37.438Z,99928.00
2022-08-21T00:09:06.935Z,99921.34
2022-08-21T00:11:36.085Z,99914.84
2022-08-21T00:14:03.961Z,99912.69
2022-08-21T00:16:30.831Z,99916.75
2022-08-21T00:18:57.423Z,99915.59
2022-08-21T00:21:24.072Z,99906.41
2022-08-21T00:23:50.853Z,99912.31
2022-08-21T00:26:17.457Z,99913.13
2022-08-21T00:28:46.684Z,99905.78
2022-08-21T00:31:13.867Z,99907.47
2022-08-21T00:33:40.505Z,99902.97
2022-08-21T00:36:07.377Z,99907.47
2022-08-21T00:38:34.218Z,99903.94
2022-08-21T00:41:36.881Z,99904.94
2022-08-21T00:43:51.370Z,99896.25
2022-08-21T00:46:18.064Z,99898.22
2022-08-21T00:48:44.723Z,99903.72
2022-08-21T00:51:19.668Z,99903.50
2022-08-21T00:53:50.649Z,99900.16
2022-08-21T00:56:21.994Z,99898.78
2022-08-21T00:58:49.869Z,99901.91
2022-08-21T01:01:22.150Z,99897.03
2022-08-21T01:03:49.283Z,99898.19
2022-08-21T01:06:17.717Z,99892.28
2022-08-21T01:08:46.798Z,99890.59
2022-08-21T01:11:15.581Z,99895.97
2022-08-21T01:13:46.926Z,99891.47
2022-08-21T01:16:16.566Z,99892.28
2022-08-21T01:18:44.123Z,99896.66
2022-08-21T01:21:13.013Z,99899.34
2022-08-21T01:23:43.039Z,99886.94
2022-08-21T01:26:10.368Z,99888.78
2022-08-21T01:28:46.808Z,99892.59
2022-08-21T01:31:15.991Z,99894.28
2022-08-21T01:33:43.552Z,99897.09
2022-08-21T01:36:10.645Z,99894.44
2022-08-21T01:38:37.267Z,99895.28
2022-08-21T01:41:03.845Z,99900.63
2022-08-21T01:43:32.418Z,99894.44
2022-08-21T01:46:06.156Z,99898.78
2022-08-21T01:48:32.842Z,99895.09
2022-08-21T01:51:00.325Z,99894.28
2022-08-21T01:53:33.318Z,99899.63
2022-08-21T01:56:01.033Z,99894.44
2022-08-21T01:58:27.746Z,99894.59
2022-08-21T02:00:54.614Z,99892.91
2022-08-21T02:03:26.356Z,99890.53
2022-08-21T02:06:02.912Z,99890.00
2022-08-21T02:08:30.104Z,99891.97
2022-08-21T02:10:56.718Z,99888.63
2022-08-21T02:13:23.280Z,99887.78
2022-08-21T02:15:50.112Z,99885.09
2022-08-21T02:18:16.802Z,99882.56
2022-08-21T02:20:48.678Z,99888.09
2022-08-21T02:23:26.804Z,99890.59
2022-08-21T02:25:53.938Z,99887.91
2022-08-21T02:28:20.503Z,99885.44
2022-08-21T02:30:49.191Z,99890.06
2022-08-21T02:33:16.485Z,99890.06
2022-08-21T02:35:44.708Z,99890.38
2022-08-21T02:38:14.086Z,99881.81
2022-08-21T02:40:47.968Z,99880.28
2022-08-21T02:43:16.351Z,99876.88
2022-08-21T02:45:44.782Z,99881.84
2022-08-21T02:48:14.597Z,99880.31
2022-08-21T02:50:47.672Z,99877.41
2022-08-21T02:53:16.643Z,99876.72
2022-08-21T02:55:48.346Z,99875.72
2022-08-21T02:58:17.649Z,99875.34
2022-08-21T03:00:44.810Z,99871.28
2022-08-21T03:03:12.868Z,99865.22
2022-08-21T03:05:39.509Z,99861.03
2022-08-21T03:08:11.332Z,99860.34
2022-08-21T03:10:40.837Z,99859.50
2022-08-21T03:13:08.242Z,99854.16
2022-08-21T03:15:36.096Z,99854.16
2022-08-21T03:18:05.676Z,99861.31
2022-08-21T03:20:33.569Z,99858.66
2022-08-21T03:23:01.210Z,99856.97
2022-08-21T03:25:37.980Z,99863.19
2022-08-21T03:28:13.420Z,99858.81
2022-08-21T03:30:52.203Z,99853.91
2022-08-21T03:33:20.425Z,99857.13
2022-08-21T03:35:52.892Z,99857.44
2022-08-21T03:38:25.852Z,99857.44
2022-08-21T03:40:53.377Z,99869.09
2022-08-21T03:43:20.299Z,99852.38
2022-08-21T03:45:47.087Z,99864.06
2022-08-21T03:48:13.899Z,99857.19
2022-08-21T03:50:43.383Z,99856.63
2022-08-21T03:53:17.295Z,99858.50
2022-08-21T03:55:47.595Z,99866.66
2022-08-21T03:58:17.499Z,99868.63
2022-08-21T04:00:46.783Z,99865.94
2022-08-21T04:03:13.542Z,99869.63
2022-08-21T04:05:40.239Z,99865.25
2022-08-21T04:08:07.760Z,99877.91
2022-08-21T04:10:36.503Z,99868.38
2022-08-21T04:13:05.034Z,99872.31
2022-08-21T04:15:31.731Z,99875.13
2022-08-21T04:17:58.327Z,99871.94
2022-08-21T04:20:26.042Z,99872.22
2022-08-21T04:22:53.498Z,99881.50
2022-08-21T04:25:22.253Z,99879.16
2022-08-21T04:27:48.919Z,99885.63
2022-08-21T04:30:16.535Z,99886.59
2022-08-21T04:32:49.674Z,99885.22
2022-08-21T04:35:18.798Z,99878.16
2022-08-21T04:37:45.540Z,99886.50
2022-08-21T04:40:14.813Z,99881.44
2022-08-21T04:42:47.564Z,99895.06
2022-08-21T04:45:24.055Z,99885.66
2022-08-21T04:47:56.190Z,99887.34
2022-08-21T04:50:27.498Z,99888.31
2022-08-21T04:52:54.567Z,99891.13
2022-08-21T04:55:22.427Z,99890.59
2022-08-21T04:57:50.934Z,99887.06
2022-08-21T05:00:19.968Z,99891.59
2022-08-21T05:02:48.719Z,99885.53
2022-08-21T05:05:16.988Z,99885.69
2022-08-21T05:07:45.529Z,99885.69
2022-08-21T05:10:13.807Z,99891.88
2022-08-21T05:12:42.998Z,99897.22
2022-08-21T05:15:13.434Z,99900.56
2022-08-21T05:17:41.845Z,99894.25
2022-08-21T05:20:10.373Z,99898.59
2022-08-21T05:22:37.115Z,99897.63
2022-08-21T05:25:10.244Z,99897.47
2022-08-21T05:27:39.596Z,99901.97
2022-08-21T05:30:10.691Z,99894.94
2022-08-21T05:32:37.602Z,99893.00
2022-08-21T05:35:06.971Z,99898.34
2022-08-21T05:37:34.392Z,99901.69
2022-08-21T05:40:20.792Z,99899.88
2022-08-21T05:42:54.696Z,99900.56
2022-08-21T05:45:42.176Z,99902.22
2022-08-21T05:48:10.879Z,99900.81
2022-08-21T05:50:39.648Z,99895.47
2022-08-21T05:53:07.761Z,99900.94
2022-08-21T05:55:36.476Z,99907.16
2022-08-21T05:58:03.408Z,99904.47
2022-08-21T06:00:30.051Z,99898.00
2022-08-21T06:02:56.896Z,99897.00
2022-08-21T06:05:36.383Z,99891.66
2022-08-21T06:08:04.139Z,99900.28
2022-08-21T06:10:30.838Z,99898.28
2022-08-21T06:12:57.590Z,99894.47
2022-08-21T06:15:24.362Z,99896.00
2022-08-21T06:17:50.964Z,99906.41
2022-08-21T06:20:17.550Z,99906.00
2022-08-21T06:22:44.164Z,99906.53
2022-08-21T06:25:11.242Z,99903.72
2022-08-21T06:27:37.989Z,99907.06
2022-08-21T06:30:08.413Z,99897.09
2022-08-21T06:32:35.820Z,99898.47
2022-08-21T06:35:04.962Z,99903.50
2022-08-21T06:37:32.218Z,99894.22
2022-08-21T06:39:58.839Z,99892.91
2022-08-21T06:42:28.289Z,99903.19
2022-08-21T06:44:55.264Z,99909.06
2022-08-21T06:47:21.894Z,99904.28
2022-08-21T06:49:48.482Z,99902.13
2022-08-21T06:52:16.859Z,99900.84
2022-08-21T06:54:43.792Z,99897.88
2022-08-21T06:57:10.361Z,99892.22
2022-08-21T06:59:37.054Z,99898.81
2022-08-21T07:02:04.592Z,99897.50
2022-08-21T07:04:31.325Z,99890.88
2022-08-21T07:06:57.874Z,99899.28
2022-08-21T07:09:24.972Z,99893.66
2022-08-21T07:11:54.206Z,99895.91
2022-08-21T07:14:20.821Z,99894.44
2022-08-21T07:16:48.472Z,99889.47
2022-08-21T07:19:15.237Z,99893.50
2022-08-21T07:21:42.047Z,99888.56
2022-08-21T07:24:09.023Z,99897.78
2022-08-21T07:26:35.885Z,99893.81
2022-08-21T07:29:02.559Z,99884.66
2022-08-21T07:31:29.761Z,99892.34
2022-08-21T07:33:56.520Z,99895.88
2022-08-21T07:36:23.811Z,99897.56
2022-08-21T07:38:52.672Z,99892.06
2022-08-21T07:41:22.681Z,99888.38
2022-08-21T07:43:49.755Z,99887.06
2022-08-21T07:46:19.858Z,99885.75
2022-08-21T07:48:46.495Z,99887.13
2022-08-21T07:51:15.556Z,99890.19
2022-08-21T07:53:42.763Z,99890.56
2022-08-21T07:56:09.809Z,99887.41
2022-08-21T07:58:36.497Z,99884.28
2022-08-21T08:01:03.455Z,99877.63
2022-08-21T08:03:30.224Z,99886.03
2022-08-21T08:05:57.900Z,99886.56
2022-08-21T08:08:25.560Z,99885.25
2022-08-21T08:10:53.766Z,99893.66
2022-08-21T08:13:20.393Z,99882.63
2022-08-21T08:15:47.087Z,99888.34
2022-08-21T08:18:14.898Z,99887.03
2022-08-21T08:20:42.225Z,99878.50
2022-08-21T08:23:19.733Z,99876.50
2022-08-21T08:25:46.337Z,99886.25
2022-08-21T08:28:21.297Z,99882.25
2022-08-21T08:30:50.283Z,99875.41
2022-08-21T08:33:22.164Z,99874.94
2022-08-21T08:36:04.658Z,99873.28
2022-08-21T08:39:06.053Z,99872.63
2022-08-21T08:41:48.406Z,99870.38
2022-08-21T08:44:25.384Z,99866.69
2022-08-21T08:46:58.602Z,99870.41
2022-08-21T08:49:50.673Z,99877.13
2022-08-21T08:52:17.172Z,99869.44
2022-08-21T08:54:50.268Z,99877.50
2022-08-21T08:57:19.955Z,99871.78
2022-08-21T08:59:54.243Z,99873.44
2022-08-21T09:02:21.980Z,99872.44
2022-08-21T09:04:49.664Z,99876.84
2022-08-21T09:07:41.188Z,99875.31
2022-08-21T09:10:19.340Z,99864.91
2022-08-21T09:13:06.239Z,99867.41
2022-08-21T09:15:54.379Z,99867.91
2022-08-21T09:18:23.928Z,99858.44
2022-08-21T09:21:19.180Z,99858.78
2022-08-21T09:23:52.224Z,99859.56
2022-08-21T09:26:21.697Z,99861.78
2022-08-21T09:29:01.726Z,99862.44
2022-08-21T09:31:40.118Z,99851.00
2022-08-21T09:34:10.979Z,99850.59
2022-08-21T09:36:51.511Z,99853.22
2022-08-21T09:39:31.785Z,99849.78
2022-08-21T09:41:59.986Z,99845.16
2022-08-21T09:44:34.496Z,99852.16
2022-08-21T09:47:01.609Z,99843.69
2022-08-21T09:49:30.596Z,99846.34
2022-08-21T09:51:58.539Z,99832.13
2022-08-21T09:54:33.615Z,99840.78
2022-08-21T09:57:32.240Z,99837.66
2022-08-21T10:00:25.543Z,99833.88
2022-08-21T10:02:52.077Z,99833.78
2022-08-21T10:05:23.934Z,99819.25
2022-08-21T10:07:50.963Z,99831.16
2022-08-21T10:10:30.419Z,99831.59
2022-08-21T10:13:17.669Z,99824.09
2022-08-21T10:16:02.771Z,99821.94
2022-08-21T10:18:42.423Z,99817.56
2022-08-21T10:21:11.879Z,99827.03
2022-08-21T10:24:30.504Z,99829.38
2022-08-21T10:27:23.298Z,99826.34
2022-08-21T10:30:08.064Z,99831.03
2022-08-21T10:33:01.039Z,99815.75
2022-08-21T10:35:35.092Z,99815.63
2022-08-21T10:38:50.459Z,99828.94
2022-08-21T10:41:19.735Z,99823.59
2022-08-21T10:43:58.291Z,99821.03
2022-08-21T10:46:46.599Z,99816.66
2022-08-21T10:49:34.268Z,99811.81
2022-08-21T10:52:34.447Z,99807.16
2022-08-21T10:55:45.574Z,99817.91
2022-08-21T10:58:19.467Z,99813.97
2022-08-21T11:00:54.646Z,99808.00
2022-08-21T11:03:42.178Z,99800.97
2022-08-21T11:06:32.790Z,99805.22
2022-08-21T11:09:10.531Z,99807.06
2022-08-21T11:12:10.858Z,99806.28
2022-08-21T11:15:27.053Z,99806.75
2022-08-21T11:18:11.316Z,99806.75
2022-08-21T11:21:00.219Z,99806.31
2022-08-21T11:23:37.359Z,99803.00
2022-08-21T11:26:14.538Z,99814.94
2022-08-21T11:28:55.407Z,99819.63
2022-08-21T11:31:57.109Z,99817.31
2022-08-21T11:35:01.258Z,99808.03
2022-08-21T11:37:49.840Z,99808.63
2022-08-21T11:40:16.423Z,99825.78
2022-08-21T11:43:07.830Z,99818.13
2022-08-21T11:45:45.456Z,99818.22
2022-08-21T11:48:15.021Z,99817.72
2022-08-21T11:50:45.088Z,99819.78
2022-08-21T11:53:22.179Z,99822.59
2022-08-21T11:55:58.124Z,99816.69
2022-08-21T11:58:35.815Z,99820.59
2022-08-21T12:01:09.749Z,99824.78
2022-08-21T12:03:45.895Z,99817.94
2022-08-21T12:06:24.225Z,99816.22
2022-08-21T12:09:00.419Z,99827.06
2022-08-21T12:11:30.518Z,99823.59
2022-08-21T12:14:14.424Z,99823.09
2022-08-21T12:16:47.530Z,99825.94
2022-08-21T12:19:30.510Z,99817.41
2022-08-21T12:22:06.311Z,99814.72
2022-08-21T12:24:47.902Z,99820.53
2022-08-21T12:27:26.588Z,99814.84
2022-08-21T12:29:57.558Z,99814.59
2022-08-21T12:32:45.680Z,99808.34
2022-08-21T12:35:24.776Z,99809.75
2022-08-21T12:38:13.497Z,99800.25
2022-08-21T12:40:44.030Z,99810.00
2022-08-21T12:43:22.682Z,99807.56
2022-08-21T12:45:51.950Z,99799.84
2022-08-21T12:48:27.385Z,99799.75
2022-08-21T12:51:08.196Z,99801.97
2022-08-21T12:53:48.642Z,99798.84
2022-08-21T12:56:21.662Z,99812.16
2022-08-21T12:58:52.469Z,99805.59
2022-08-21T13:01:29.289Z,99807.38
2022-08-21T13:04:04.300Z,99803.66
2022-08-21T13:06:38.546Z,99796.88
2022-08-21T13:09:07.699Z,99806.50
2022-08-21T13:11:34.990Z,99805.69
2022-08-21T13:14:04.942Z,99805.34
2022-08-21T13:16:36.176Z,99816.75
2022-08-21T13:19:12.966Z,99802.94
2022-08-21T13:21:49.732Z,99812.13
2022-08-21T13:24:41.753Z,99810.75
2022-08-21T13:27:28.017Z,99801.59
2022-08-21T13:30:10.646Z,99811.56
2022-08-21T13:32:42.501Z,99809.50
2022-08-21T13:35:27.215Z,99805.72
2022-08-21T13:37:56.599Z,99805.59
2022-08-21T13:40:33.824Z,99805.94
2022-08-21T13:43:01.528Z,99806.47
2022-08-21T13:45:33.821Z,99809.19
2022-08-21T13:48:06.623Z,99800.56
2022-08-21T13:50:36.761Z,99815.47
2022-08-21T13:53:08.915Z,99815.00
2022-08-21T13:55:44.712Z,99811.41
2022-08-21T13:58:12.871Z,99822.94
2022-08-21T14:00:49.756Z,99820.34
2022-08-21T14:03:34.795Z,99812.31
2022-08-21T14:06:03.785Z,99816.69
2022-08-21T14:08:37.757Z,99810.34
2022-08-21T14:11:12.944Z,99810.00
2022-08-21T14:13:47.605Z,99808.28
2022-08-21T14:16:26.686Z,99814.41
2022-08-21T14:19:04.169Z,99808.84
2022-08-21T14:21:38.208Z,99808.59
2022-08-21T14:24:09.891Z,99810.09
2022-08-21T14:26:45.292Z,99810.25
2022-08-21T14:29:16.426Z,99805.53
2022-08-21T14:31:44.177Z,99811.03
2022-08-21T14:34:19.118Z,99813.41
2022-08-21T14:36:46.627Z,99815.00
2022-08-21T14:39:13.256Z,99806.19
2022-08-21T14:41:40.174Z,99805.06
2022-08-21T14:44:09.600Z,99800.56
2022-08-21T14:46:43.959Z,99809.47
2022-08-21T14:49:24.274Z,99800.78
2022-08-21T14:51:57.749Z,99799.59
2022-08-21T14:54:30.896Z,99800.56
2022-08-21T14:57:01.648Z,99806.78
2022-08-21T14:59:28.611Z,99799.06
2022-08-21T15:01:55.203Z,99796.34
2022-08-21T15:04:21.747Z,99793.94
2022-08-21T15:06:48.326Z,99788.44
2022-08-21T15:09:14.885Z,99785.69
2022-08-21T15:11:43.187Z,99785.72
2022-08-21T15:14:16.661Z,99790.59
2022-08-21T15:16:43.274Z,99785.09
2022-08-21T15:19:09.824Z,99779.78
2022-08-21T15:21:36.409Z,99784.00
2022-08-21T15:24:03.306Z,99788.97
2022-08-21T15:26:30.022Z,99793.41
2022-08-21T15:28:56.580Z,99789.00
2022-08-21T15:31:23.148Z,99784.84
2022-08-21T15:33:49.680Z,99780.72
2022-08-21T15:36:16.276Z,99773.84
2022-08-21T15:38:42.855Z,99777.16
2022-08-21T15:41:09.564Z,99780.44
2022-08-21T15:43:56.692Z,99781.53
2022-08-21T15:46:23.460Z,99771.09
2022-08-21T15:48:50.061Z,99772.22
2022-08-21T15:51:17.718Z,99765.03
2022-08-21T15:53:45.468Z,99767.25
2022-08-21T15:56:24.379Z,99769.97
2022-08-21T15:58:53.285Z,99772.44
2022-08-21T16:01:21.694Z,99776.22
2022-08-21T16:03:51.480Z,99769.34
2022-08-21T16:06:18.061Z,99774.81
2022-08-21T16:09:04.434Z,99767.09
2022-08-21T16:11:31.082Z,99773.66
2022-08-21T16:13:57.768Z,99766.34
2022-08-21T16:16:25.234Z,99770.50
2022-08-21T16:18:52.647Z,99763.69
2022-08-21T16:21:19.744Z,99768.88
2022-08-21T16:23:46.468Z,99762.91
2022-08-21T16:26:16.007Z,99765.22
2022-08-21T16:28:46.502Z,99768.44
2022-08-21T16:31:15.467Z,99767.81
2022-08-21T16:33:58.087Z,99762.97
2022-08-21T16:36:26.400Z,99765.81
2022-08-21T16:38:54.782Z,99765.22
2022-08-21T16:41:23.437Z,99760.19
2022-08-21T16:43:51.877Z,99759.72
2022-08-21T16:46:20.672Z,99758.94
2022-08-21T16:48:47.604Z,99763.03
2022-08-21T16:51:15.549Z,99759.69
2022-08-21T16:53:43.667Z,99768.25
2022-08-21T16:56:12.486Z,99763.56
2022-08-21T16:58:42.677Z,99767.22
2022-08-21T17:01:12.721Z,99762.44
2022-08-21T17:03:42.621Z,99760.94
2022-08-21T17:06:10.165Z,99762.75
2022-08-21T17:08:37.110Z,99764.31
2022-08-21T17:11:07.559Z,99760.38
2022-08-21T17:13:35.166Z,99766.88
2022-08-21T17:16:01.829Z,99764.09
2022-08-21T17:18:28.408Z,99763.63
2022-08-21T17:20:55.165Z,99757.13
2022-08-21T17:23:21.854Z,99762.66
2022-08-21T17:25:52.903Z,99758.81
2022-08-21T17:28:25.817Z,99754.50
2022-08-21T17:30:58.795Z,99761.94
2022-08-21T17:33:27.435Z,99764.28
2022-08-21T17:35:54.148Z,99763.94
2022-08-21T17:38:20.852Z,99761.84
2022-08-21T17:40:48.679Z,99766.09
2022-08-21T17:43:15.863Z,99764.06
2022-08-21T17:45:44.521Z,99767.44
2022-08-21T17:48:11.499Z,99767.06
2022-08-21T17:50:39.219Z,99769.34
2022-08-21T17:53:05.818Z,99770.00
2022-08-21T17:55:34.013Z,99767.94
2022-08-21T17:58:02.350Z,99769.41
2022-08-21T18:00:29.801Z,99772.75
2022-08-21T18:03:15.124Z,99776.91
2022-08-21T18:05:47.082Z,99772.09
2022-08-21T18:08:14.994Z,99780.22
2022-08-21T18:10:45.465Z,99781.25
2022-08-21T18:13:15.742Z,99786.03
2022-08-21T18:15:50.106Z,99786.22
2022-08-21T18:18:17.204Z,99787.88
2022-08-21T18:20:43.893Z,99785.34
2022-08-21T18:23:10.786Z,99788.06
2022-08-21T18:25:37.405Z,99787.19
2022-08-21T18:28:06.932Z,99796.31
2022-08-21T18:30:38.611Z,99795.66
2022-08-21T18:33:05.592Z,99795.63
2022-08-21T18:35:32.682Z,99797.47
2022-08-21T18:37:59.368Z,99799.53
2022-08-21T18:40:26.281Z,99802.16
2022-08-21T18:42:55.817Z,99799.44
2022-08-21T18:45:23.698Z,99803.78
2022-08-21T18:47:55.885Z,99800.34
2022-08-21T18:50:26.564Z,99799.94
2022-08-21T18:52:54.476Z,99797.81
2022-08-21T18:55:24.549Z,99805.88
2022-08-21T18:57:51.743Z,99808.16
2022-08-21T19:00:23.555Z,99806.44
2022-08-21T19:02:51.428Z,99812.41
2022-08-21T19:05:18.883Z,99822.53
2022-08-21T19:07:46.125Z,99819.16
2022-08-21T19:10:31.157Z,99819.47
2022-08-21T19:12:59.692Z,99818.28
2022-08-21T19:15:27.097Z,99823.38
2022-08-21T19:17:56.334Z,99831.78
2022-08-21T19:20:31.596Z,99838.91
2022-08-21T19:22:58.358Z,99838.81
2022-08-21T19:25:33.446Z,99841.84
2022-08-21T19:28:01.804Z,99842.72
2022-08-21T19:30:28.854Z,99842.19
2022-08-21T19:32:55.678Z,99846.19
2022-08-21T19:35:23.243Z,99850.03
2022-08-21T19:37:49.883Z,99847.59
2022-08-21T19:40:19.215Z,99848.09
2022-08-21T19:42:49.155Z,99852.88
2022-08-21T19:45:15.840Z,99846.53
2022-08-21T19:47:47.194Z,99847.81
2022-08-21T19:50:17.787Z,99849.56
2022-08-21T19:52:55.674Z,99840.53
2022-08-21T19:58:22.645Z,99843.53
2022-08-21T20:00:49.439Z,99849.50
2022-08-21T20:03:17.888Z,99847.50
2022-08-21T20:05:48.054Z,99845.53
2022-08-21T20:08:20.171Z,99854.34
2022-08-21T20:10:47.715Z,99851.50
2022-08-21T20:13:18.083Z,99851.56
2022-08-21T20:15:45.609Z,99856.63
2022-08-21T20:18:12.253Z,99854.66
2022-08-21T20:20:38.840Z,99851.81
2022-08-21T20:23:10.898Z,99854.38
2022-08-21T20:25:39.402Z,99855.28
2022-08-21T20:28:06.811Z,99854.13
2022-08-21T20:30:34.889Z,99852.97
2022-08-21T20:33:01.595Z,99845.41
2022-08-21T20:35:28.428Z,99853.00
2022-08-21T20:40:43.658Z,99854.53
2022-08-21T20:43:12.816Z,99858.75
2022-08-21T20:45:40.823Z,99854.72
2022-08-21T20:48:19.293Z,99860.63
2022-08-21T20:50:55.271Z,99856.94
2022-08-21T20:53:53.880Z,99856.94
2022-08-21T20:56:35.177Z,99860.81
2022-08-21T20:59:16.529Z,99856.16
2022-08-21T21:01:47.842Z,99864.72
2022-08-21T21:04:36.848Z,99864.91
2022-08-21T21:07:09.261Z,99879.34
2022-08-21T21:09:42.189Z,99870.09
2022-08-21T21:12:27.889Z,99874.16
2022-08-21T21:14:59.602Z,99873.47
2022-08-21T21:20:34.996Z,99874.34
2022-08-21T21:23:16.533Z,99874.84
2022-08-21T21:26:05.448Z,99875.97
2022-08-21T21:29:10.611Z,99876.50
2022-08-21T21:31:37.787Z,99870.13
2022-08-21T21:34:04.669Z,99867.09
2022-08-21T21:36:56.022Z,99869.94
2022-08-21T21:39:41.602Z,99871.63
2022-08-21T21:42:41.589Z,99877.13
2022-08-21T21:45:25.881Z,99876.47
2022-08-21T21:47:58.584Z,99880.84
2022-08-21T21:50:51.484Z,99881.50
2022-08-21T21:53:26.447Z,99875.28
2022-08-21T21:56:27.552Z,99878.81
2022-08-21T21:59:13.098Z,99884.97
2022-08-21T22:01:55.976Z,99891.53
2022-08-21T22:04:31.740Z,99885.50
2022-08-21T22:07:37.576Z,99887.31
2022-08-21T22:13:10.076Z,99888.47
2022-08-21T22:15:37.881Z,99896.19
2022-08-21T22:18:21.469Z,99889.59
2022-08-21T22:21:03.498Z,99896.44
2022-08-21T22:23:42.346Z,99893.75
2022-08-21T22:26:13.641Z,99893.75
2022-08-21T22:28:43.824Z,99894.09
2022-08-21T22:31:13.153Z,99899.78
2022-08-21T22:33:41.381Z,99902.31
2022-08-21T22:36:20.741Z,99907.47
2022-08-21T22:38:47.361Z,99900.78
2022-08-21T22:41:18.052Z,99900.78
2022-08-21T22:43:56.449Z,99895.72
2022-08-21T22:46:36.737Z,99904.94
2022-08-21T22:49:08.956Z,99904.78
2022-08-21T22:51:40.500Z,99906.63
2022-08-21T22:54:16.779Z,99901.56
2022-08-21T22:57:03.552Z,99901.22
2022-08-21T22:59:41.693Z,99902.38
2022-08-21T23:02:37.196Z,99907.22
2022-08-21T23:05:17.294Z,99901.56
2022-08-21T23:07:49.902Z,99905.06
2022-08-21T23:10:34.175Z,99910.91
2022-08-21T23:13:09.172Z,99904.56
2022-08-21T23:15:53.079Z,99908.56
2022-08-21T23:18:37.898Z,99915.75
2022-08-21T23:21:20.974Z,99908.72
2022-08-21T23:24:29.436Z,99908.50
2022-08-21T23:27:20.771Z,99907.00
2022-08-21T23:29:54.899Z,99904.31
2022-08-21T23:32:40.711Z,99899.81
2022-08-21T23:35:47.517Z,99901.94
2022-08-21T23:38:28.944Z,99899.97
2022-08-21T23:41:03.909Z,99905.31
2022-08-21T23:43:47.311Z,99900.94
2022-08-21T23:46:34.724Z,99899.63
2022-08-21T23:49:06.734Z,99906.28
2022-08-21T23:51:57.373Z,99912.81
2022-08-21T23:54:30.005Z,99906.78
2022-08-21T23:57:11.460Z,99914.97
2022-08-21T23:59:40.701Z,99904.09
